createdAt,value
2017-11-18T00:02:23.494Z,65.53
2017-11-18T00:04:51.846Z,73.80
2017-11-18T00:07:20.148Z,69.70
2017-11-18T00:09:48.498Z,86.60
2017-11-18T00:12:16.803Z,86.60
2017-11-18T00:14:45.158Z,84.10
2017-11-18T00:17:13.526Z,86.73
2017-11-18T00:19:42.016Z,79.67
2017-11-18T00:22:10.349Z,85.67
2017-11-18T00:24:38.697Z,73.90
2017-11-18T00:27:07.026Z,68.43
2017-11-18T00:29:35.352Z,93.67
2017-11-18T00:32:03.701Z,88.47
2017-11-18T00:34:32.011Z,78.70
2017-11-18T00:37:00.328Z,70.80
2017-11-18T00:39:28.705Z,85.40
2017-11-18T00:41:57.011Z,90.63
2017-11-18T00:44:25.338Z,82.27
2017-11-18T00:46:53.703Z,86.23
2017-11-18T00:49:22.019Z,88.30
2017-11-18T00:51:50.331Z,100.80
2017-11-18T00:54:18.685Z,97.17
2017-11-18T00:56:46.997Z,87.43
2017-11-18T00:59:15.307Z,92.53
2017-11-18T01:01:43.633Z,92.57
2017-11-18T01:04:11.946Z,75.67
2017-11-18T01:06:40.296Z,94.70
2017-11-18T01:11:54.747Z,91.73
2017-11-18T01:14:23.058Z,79.37
2017-11-18T01:16:51.375Z,82.37
2017-11-18T01:19:19.689Z,91.97
2017-11-18T01:21:48.025Z,101.47
2017-11-18T01:24:16.367Z,99.20
2017-11-18T01:26:44.688Z,104.37
2017-11-18T01:29:13.043Z,106.97
2017-11-18T01:31:41.388Z,94.30
2017-11-18T01:34:09.714Z,103.37
2017-11-18T01:36:38.172Z,104.50
2017-11-18T01:39:06.510Z,82.63
2017-11-18T01:41:34.821Z,87.67
2017-11-18T01:44:03.367Z,85.97
2017-11-18T01:46:31.675Z,90.87
2017-11-18T01:48:59.969Z,88.33
2017-11-18T01:51:28.405Z,83.27
2017-11-18T01:53:56.734Z,107.07
2017-11-18T01:56:25.237Z,87.40
2017-11-18T01:58:53.581Z,89.30
2017-11-18T02:01:21.905Z,89.60
2017-11-18T02:03:50.253Z,90.90
2017-11-18T02:06:18.582Z,93.23
2017-11-18T02:08:46.886Z,97.87
2017-11-18T02:11:15.213Z,96.10
2017-11-18T02:13:43.537Z,79.63
2017-11-18T02:16:11.894Z,85.23
2017-11-18T02:18:40.238Z,87.33
2017-11-18T02:21:08.562Z,95.50
2017-11-18T02:23:36.939Z,93.53
2017-11-18T02:26:05.253Z,91.97
2017-11-18T02:28:33.597Z,87.00
2017-11-18T02:31:01.911Z,89.93
2017-11-18T02:33:30.223Z,99.63
2017-11-18T02:35:58.586Z,95.90
2017-11-18T02:38:26.906Z,94.83
2017-11-18T02:40:55.279Z,101.80
2017-11-18T02:43:23.601Z,98.73
2017-11-18T02:45:51.924Z,82.83
2017-11-18T02:48:20.268Z,86.17
2017-11-18T02:50:48.586Z,98.80
2017-11-18T02:53:16.901Z,95.17
2017-11-18T02:55:46.170Z,96.17
2017-11-18T02:58:14.483Z,107.27
2017-11-18T03:00:42.814Z,90.63
2017-11-18T03:03:11.185Z,95.90
2017-11-18T03:05:39.485Z,108.40
2017-11-18T03:08:07.797Z,96.80
2017-11-18T03:10:36.163Z,97.47
2017-11-18T03:13:04.481Z,95.60
2017-11-18T03:15:32.822Z,97.73
2017-11-18T03:18:01.201Z,100.43
2017-11-18T03:20:29.523Z,103.43
2017-11-18T03:22:57.855Z,111.37
2017-11-18T03:25:26.197Z,106.07
2017-11-18T03:27:54.535Z,109.33
2017-11-18T03:30:22.879Z,104.67
2017-11-18T03:32:51.194Z,99.37
2017-11-18T03:35:19.501Z,98.60
2017-11-18T03:37:47.846Z,98.40
2017-11-18T03:40:16.177Z,103.83
2017-11-18T03:42:44.494Z,111.80
2017-11-18T03:45:12.856Z,100.30
2017-11-18T03:47:41.179Z,90.30
2017-11-18T03:50:09.489Z,104.27
2017-11-18T03:52:37.873Z,115.93
2017-11-18T03:55:06.187Z,97.83
2017-11-18T03:57:34.506Z,96.40
2017-11-18T04:00:02.845Z,90.67
2017-11-18T04:02:31.171Z,85.10
2017-11-18T04:04:59.501Z,88.60
2017-11-18T04:07:27.805Z,89.07
2017-11-18T04:09:56.111Z,90.60
2017-11-18T04:12:24.457Z,87.03
2017-11-18T04:14:52.771Z,75.33
2017-11-18T04:17:21.128Z,88.30
2017-11-18T04:19:49.442Z,95.33
2017-11-18T04:22:17.765Z,90.87
2017-11-18T04:24:46.113Z,95.77
2017-11-18T04:27:14.436Z,89.73
2017-11-18T04:29:42.779Z,78.40
2017-11-18T04:32:11.127Z,78.20
2017-11-18T04:34:39.440Z,85.23
2017-11-18T04:37:07.766Z,85.57
2017-11-18T04:39:36.187Z,90.17
2017-11-18T04:42:04.502Z,79.73
2017-11-18T04:44:32.811Z,78.70
2017-11-18T04:47:01.134Z,89.77
2017-11-18T04:49:29.463Z,87.23
2017-11-18T04:51:57.851Z,84.70
2017-11-18T04:54:26.165Z,92.97
2017-11-18T04:56:54.483Z,92.47
2017-11-18T04:59:22.838Z,73.27
2017-11-18T05:01:51.157Z,81.63
2017-11-18T05:04:19.478Z,85.50
2017-11-18T05:06:47.799Z,91.27
2017-11-18T05:09:16.132Z,61.70
2017-11-18T05:11:44.445Z,86.47
2017-11-18T05:14:12.789Z,86.43
2017-11-18T05:16:41.094Z,96.87
2017-11-18T05:19:09.432Z,94.80
2017-11-18T05:21:37.769Z,95.13
2017-11-18T05:24:06.089Z,75.67
2017-11-18T05:26:34.445Z,79.70
2017-11-18T05:29:03.666Z,93.90
2017-11-18T05:31:32.027Z,83.90
2017-11-18T05:34:00.408Z,87.20
2017-11-18T05:36:28.799Z,92.30
2017-11-18T05:38:57.115Z,95.17
2017-11-18T05:41:25.489Z,93.83
2017-11-18T05:43:53.821Z,79.83
2017-11-18T05:46:22.185Z,83.57
2017-11-18T05:48:50.538Z,84.00
2017-11-18T05:51:18.858Z,96.87
2017-11-18T05:53:47.293Z,95.83
2017-11-18T05:56:15.609Z,97.50
2017-11-18T05:58:43.917Z,79.73
2017-11-18T06:01:12.263Z,88.70
2017-11-18T06:03:40.612Z,96.83
2017-11-18T06:06:08.918Z,83.03
2017-11-18T06:08:37.252Z,89.80
2017-11-18T06:11:05.617Z,104.50
2017-11-18T06:13:33.957Z,99.23
2017-11-18T06:16:02.285Z,124.37
2017-11-18T06:18:30.612Z,94.50
2017-11-18T06:20:58.965Z,105.90
2017-11-18T06:23:27.275Z,112.43
2017-11-18T06:25:55.579Z,134.77
2017-11-18T06:28:23.917Z,129.93
2017-11-18T06:30:52.237Z,104.07
2017-11-18T06:33:20.570Z,115.07
2017-11-18T06:35:48.952Z,124.77
2017-11-18T06:38:17.268Z,136.33
2017-11-18T06:40:45.607Z,113.10
2017-11-18T06:43:14.027Z,133.13
2017-11-18T06:45:42.345Z,119.53
2017-11-18T06:48:10.678Z,115.50
2017-11-18T06:50:39.031Z,134.07
2017-11-18T06:53:07.359Z,151.73
2017-11-18T06:55:35.701Z,145.53
2017-11-18T06:58:04.022Z,130.63
2017-11-18T07:00:32.341Z,134.43
2017-11-18T07:03:00.711Z,127.67
2017-11-18T07:05:29.027Z,122.33
2017-11-18T07:07:57.346Z,122.37
2017-11-18T07:10:25.729Z,127.87
2017-11-18T07:12:54.126Z,130.13
2017-11-18T07:15:22.438Z,139.60
2017-11-18T07:17:51.256Z,155.97
2017-11-18T07:20:19.575Z,145.33
2017-11-18T07:22:47.898Z,130.53
2017-11-18T07:25:16.285Z,126.47
2017-11-18T07:27:44.614Z,117.87
2017-11-18T07:30:12.953Z,125.67
2017-11-18T07:32:41.274Z,122.00
2017-11-18T07:35:09.635Z,141.00
2017-11-18T07:37:38.309Z,125.43
2017-11-18T07:40:06.626Z,129.73
2017-11-18T07:42:34.953Z,124.53
2017-11-18T07:45:03.311Z,127.77
2017-11-18T07:47:31.647Z,121.17
2017-11-18T07:49:59.957Z,113.20
2017-11-18T07:52:28.314Z,117.60
2017-11-18T07:54:56.679Z,125.70
2017-11-18T07:57:25.006Z,117.47
2017-11-18T07:59:53.347Z,111.57
2017-11-18T08:02:21.656Z,82.63
2017-11-18T08:04:50.156Z,97.63
2017-11-18T08:07:18.590Z,68.90
2017-11-18T08:09:46.894Z,76.73
2017-11-18T08:12:15.315Z,72.23
2017-11-18T08:14:43.782Z,76.87
2017-11-18T08:17:12.158Z,75.27
2017-11-18T08:19:40.538Z,79.93
2017-11-18T08:22:08.875Z,74.33
2017-11-18T08:24:37.180Z,52.43
2017-11-18T08:27:05.598Z,64.13
2017-11-18T08:29:33.918Z,59.90
2017-11-18T08:32:02.229Z,65.90
2017-11-18T08:34:30.629Z,65.00
2017-11-18T08:36:58.988Z,43.60
2017-11-18T08:39:27.303Z,44.30
2017-11-18T08:41:55.726Z,47.03
2017-11-18T08:44:24.032Z,44.43
2017-11-18T08:46:52.365Z,51.80
2017-11-18T08:49:20.721Z,55.33
2017-11-18T08:51:49.112Z,49.47
2017-11-18T08:54:19.322Z,41.97
2017-11-18T08:56:47.679Z,46.00
2017-11-18T08:59:16.227Z,41.57
2017-11-18T09:01:44.649Z,46.63
2017-11-18T09:04:12.974Z,38.50
2017-11-18T09:06:41.335Z,39.20
2017-11-18T09:09:09.661Z,37.10
2017-11-18T09:11:37.993Z,28.37
2017-11-18T09:14:06.373Z,39.97
2017-11-18T09:16:34.686Z,36.73
2017-11-18T09:19:02.995Z,36.70
2017-11-18T09:21:31.314Z,36.23
2017-11-18T09:23:59.639Z,32.53
2017-11-18T09:26:28.004Z,33.80
2017-11-18T09:28:56.333Z,37.83
2017-11-18T09:31:24.642Z,45.77
2017-11-18T09:33:52.993Z,39.33
2017-11-18T09:36:21.317Z,36.67
2017-11-18T09:38:49.635Z,38.70
2017-11-18T09:41:18.096Z,36.67
2017-11-18T09:43:46.534Z,41.43
2017-11-18T09:46:15.081Z,30.60
2017-11-18T09:48:43.485Z,37.90
2017-11-18T09:51:11.818Z,34.93
2017-11-18T09:53:40.122Z,41.13
2017-11-18T09:56:08.481Z,33.73
2017-11-18T09:58:37.611Z,33.73
2017-11-18T10:01:05.919Z,30.50
2017-11-18T10:03:34.286Z,42.73
2017-11-18T10:06:02.880Z,33.73
2017-11-18T10:08:31.227Z,34.67
2017-11-18T10:10:59.738Z,29.77
2017-11-18T10:13:32.430Z,41.40
2017-11-18T10:16:00.957Z,46.20
2017-11-18T10:18:29.321Z,47.00
2017-11-18T10:20:58.452Z,42.57
2017-11-18T10:23:27.146Z,41.23
2017-11-18T10:25:55.530Z,46.47
2017-11-18T10:28:23.892Z,36.07
2017-11-18T10:30:52.500Z,39.93
2017-11-18T10:33:20.931Z,35.13
2017-11-18T10:35:49.253Z,31.37
2017-11-18T10:38:17.633Z,35.73
2017-11-18T10:40:45.957Z,36.70
2017-11-18T10:43:14.288Z,38.13
2017-11-18T10:45:42.750Z,40.13
2017-11-18T10:48:11.081Z,44.93
2017-11-18T10:50:39.452Z,39.20
2017-11-18T10:53:07.841Z,38.10
2017-11-18T10:55:36.154Z,30.90
2017-11-18T10:58:04.514Z,33.13
2017-11-18T11:00:32.889Z,35.60
2017-11-18T11:03:01.217Z,35.73
2017-11-18T11:05:29.551Z,33.47
2017-11-18T11:07:57.986Z,31.50
2017-11-18T11:10:26.358Z,28.30
2017-11-18T11:12:54.682Z,35.00
2017-11-18T11:15:23.072Z,28.67
2017-11-18T11:17:51.402Z,32.37
2017-11-18T11:20:19.718Z,24.30
2017-11-18T11:22:48.060Z,27.17
2017-11-18T11:25:16.415Z,28.27
2017-11-18T11:27:44.754Z,24.47
2017-11-18T11:30:13.442Z,31.63
2017-11-18T11:32:41.807Z,22.03
2017-11-18T11:35:10.197Z,21.17
2017-11-18T11:37:38.715Z,20.40
2017-11-18T11:40:07.240Z,22.17
2017-11-18T11:42:35.605Z,25.08
2017-11-18T11:45:03.923Z,16.33
2017-11-18T11:47:32.270Z,21.67
2017-11-18T11:50:00.623Z,22.60
2017-11-18T11:52:28.935Z,25.53
2017-11-18T11:54:58.332Z,21.10
2017-11-18T11:57:26.640Z,18.40
2017-11-18T11:59:54.993Z,19.57
2017-11-18T12:02:23.339Z,21.83
2017-11-18T12:04:51.677Z,18.87
2017-11-18T12:07:20.005Z,22.10
2017-11-18T12:09:48.360Z,21.97
2017-11-18T12:12:16.726Z,17.40
2017-11-18T12:14:45.219Z,23.00
2017-11-18T12:17:15.530Z,22.83
2017-11-18T12:19:43.853Z,19.20
2017-11-18T12:22:12.341Z,23.33
2017-11-18T12:24:40.741Z,17.70
2017-11-18T12:27:09.127Z,17.77
2017-11-18T12:29:37.644Z,17.57
2017-11-18T12:32:05.986Z,23.40
2017-11-18T12:34:34.305Z,23.60
2017-11-18T12:37:02.616Z,13.63
2017-11-18T12:39:30.997Z,21.80
2017-11-18T12:42:00.357Z,13.37
2017-11-18T12:44:28.690Z,16.80
2017-11-18T12:46:57.073Z,16.83
2017-11-18T12:49:25.458Z,17.30
2017-11-18T12:51:53.786Z,15.40
2017-11-18T12:54:22.092Z,15.17
2017-11-18T12:56:50.436Z,17.17
2017-11-18T12:59:18.753Z,22.60
2017-11-18T13:01:47.062Z,18.30
2017-11-18T13:04:15.413Z,25.40
2017-11-18T13:06:45.231Z,17.60
2017-11-18T13:09:13.555Z,19.23
2017-11-18T13:11:42.655Z,29.40
2017-11-18T13:14:11.690Z,17.63
2017-11-18T13:16:40.131Z,22.63
2017-11-18T13:19:08.519Z,20.70
2017-11-18T13:21:36.857Z,25.60
2017-11-18T13:24:05.211Z,18.83
2017-11-18T13:26:33.567Z,19.70
2017-11-18T13:29:01.894Z,19.73
2017-11-18T13:31:30.713Z,21.53
2017-11-18T13:33:59.089Z,26.67
2017-11-18T13:36:27.426Z,26.37
2017-11-18T13:38:55.770Z,24.73
2017-11-18T13:41:24.086Z,21.73
2017-11-18T13:43:52.396Z,34.70
2017-11-18T13:46:20.749Z,25.00
2017-11-18T13:48:49.079Z,26.87
2017-11-18T13:51:17.417Z,30.70
2017-11-18T13:53:45.771Z,27.77
2017-11-18T13:56:14.072Z,26.50
2017-11-18T13:58:42.423Z,27.10
2017-11-18T14:01:10.783Z,26.57
2017-11-18T14:03:39.097Z,30.47
2017-11-18T14:06:07.458Z,25.77
2017-11-18T14:08:35.764Z,31.30
2017-11-18T14:11:04.110Z,26.00
2017-11-18T14:13:32.447Z,27.40
2017-11-18T14:16:00.794Z,29.47
2017-11-18T14:18:29.142Z,27.50
2017-11-18T14:20:57.518Z,27.57
2017-11-18T14:23:25.835Z,27.33
2017-11-18T14:25:54.157Z,23.93
2017-11-18T14:28:22.517Z,27.13
2017-11-18T14:30:50.840Z,29.77
2017-11-18T14:33:19.253Z,24.20
2017-11-18T14:35:47.734Z,32.50
2017-11-18T14:38:16.108Z,25.67
2017-11-18T14:40:44.431Z,22.87
2017-11-18T14:43:12.793Z,32.43
2017-11-18T14:45:41.120Z,24.53
2017-11-18T14:48:09.470Z,20.60
2017-11-18T14:50:38.039Z,27.37
2017-11-18T14:53:06.371Z,21.40
2017-11-18T14:55:34.820Z,21.93
2017-11-18T14:58:03.150Z,22.10
2017-11-18T15:00:31.543Z,23.67
2017-11-18T15:02:59.866Z,26.63
2017-11-18T15:05:28.235Z,39.10
2017-11-18T15:07:56.615Z,28.13
2017-11-18T15:10:24.929Z,24.60
2017-11-18T15:12:53.284Z,25.90
2017-11-18T15:18:41.044Z,22.50
2017-11-18T15:24:39.291Z,27.53
2017-11-18T15:27:13.314Z,20.83
2017-11-18T15:33:12.071Z,20.50
2017-11-18T15:38:50.021Z,24.27
2017-11-18T15:41:18.479Z,21.87
2017-11-18T15:47:12.764Z,23.80
2017-11-18T16:03:20.583Z,17.00
2017-11-18T16:05:50.757Z,16.60
2017-11-18T16:08:21.913Z,18.37
2017-11-18T16:10:50.212Z,17.27
2017-11-18T16:13:18.709Z,19.93
2017-11-18T16:15:47.272Z,16.13
2017-11-18T16:18:16.836Z,21.60
2017-11-18T16:20:45.184Z,18.83
2017-11-18T16:23:13.503Z,21.07
2017-11-18T16:25:41.815Z,20.43
2017-11-18T16:28:13.586Z,19.80
2017-11-18T16:30:41.902Z,17.03
2017-11-18T16:33:10.278Z,20.20
2017-11-18T16:35:38.659Z,25.40
2017-11-18T16:38:11.039Z,17.13
2017-11-18T16:40:39.728Z,17.20
2017-11-18T16:43:08.058Z,22.23
2017-11-18T16:45:36.368Z,26.87
2017-11-18T16:48:04.713Z,16.10
2017-11-18T16:50:33.092Z,17.20
2017-11-18T16:53:01.511Z,22.50
2017-11-18T16:55:29.955Z,15.70
2017-11-18T16:57:58.246Z,14.77
2017-11-18T17:00:26.553Z,15.63
2017-11-18T17:02:54.979Z,17.67
2017-11-18T17:05:23.277Z,13.47
2017-11-18T17:07:51.594Z,16.70
2017-11-18T17:10:20.052Z,15.20
2017-11-18T17:12:48.387Z,15.93
2017-11-18T17:15:16.709Z,16.33
2017-11-18T17:17:45.405Z,20.43
2017-11-18T17:20:13.770Z,16.17
2017-11-18T17:22:42.144Z,17.80
2017-11-18T17:25:10.489Z,18.03
2017-11-18T17:27:38.845Z,16.90
2017-11-18T17:30:07.145Z,20.27
2017-11-18T17:32:35.520Z,18.00
2017-11-18T17:35:03.874Z,18.90
2017-11-18T17:37:32.288Z,19.83
2017-11-18T17:40:00.704Z,20.00
2017-11-18T17:42:29.016Z,18.00
2017-11-18T17:44:57.387Z,19.27
2017-11-18T17:47:26.053Z,25.97
2017-11-18T17:49:54.434Z,17.23
2017-11-18T17:52:23.269Z,22.13
2017-11-18T17:54:51.598Z,23.13
2017-11-18T17:57:21.113Z,21.27
2017-11-18T17:59:51.696Z,21.20
2017-11-18T18:02:20.017Z,17.77
2017-11-18T18:04:48.326Z,18.77
2017-11-18T18:07:16.647Z,15.50
2017-11-18T18:09:44.968Z,15.47
2017-11-18T18:12:13.347Z,15.17
2017-11-18T18:14:41.713Z,33.63
2017-11-18T18:17:10.021Z,14.07
2017-11-18T18:19:38.349Z,14.03
2017-11-18T18:22:06.672Z,12.70
2017-11-18T18:24:35.138Z,14.80
2017-11-18T18:27:03.474Z,15.97
2017-11-18T18:29:31.782Z,13.43
2017-11-18T18:32:00.129Z,14.73
2017-11-18T18:34:28.501Z,15.13
2017-11-18T18:36:56.813Z,17.57
2017-11-18T18:39:25.162Z,14.90
2017-11-18T18:41:53.532Z,16.50
2017-11-18T18:44:21.874Z,13.50
2017-11-18T18:46:50.220Z,27.90
2017-11-18T18:49:18.530Z,14.50
2017-11-18T18:51:46.851Z,17.43
2017-11-18T18:54:15.190Z,13.87
2017-11-18T18:56:43.513Z,19.47
2017-11-18T18:59:11.907Z,21.70
2017-11-18T19:01:40.227Z,16.00
2017-11-18T19:04:09.106Z,18.23
2017-11-18T19:06:37.483Z,14.37
2017-11-18T19:09:05.946Z,16.90
2017-11-18T19:11:36.143Z,13.07
2017-11-18T19:14:04.632Z,16.13
2017-11-18T19:16:33.018Z,15.83
2017-11-18T19:19:01.386Z,19.50
2017-11-18T19:21:29.805Z,14.07
2017-11-18T19:23:58.120Z,18.40
2017-11-18T19:26:26.425Z,16.17
2017-11-18T19:28:54.855Z,16.03
2017-11-18T19:31:23.185Z,19.10
2017-11-18T19:33:51.560Z,15.90
2017-11-18T19:36:20.010Z,16.43
2017-11-18T19:38:48.333Z,17.10
2017-11-18T19:41:16.642Z,15.57
2017-11-18T19:43:44.985Z,16.80
2017-11-18T19:46:13.315Z,15.70
2017-11-18T19:48:41.613Z,14.00
2017-11-18T19:51:10.008Z,13.70
2017-11-18T19:53:38.331Z,12.40
2017-11-18T19:56:06.657Z,17.53
2017-11-18T19:58:34.991Z,16.97
2017-11-18T20:01:03.761Z,17.80
2017-11-18T20:03:32.149Z,17.37
2017-11-18T20:06:00.465Z,16.50
2017-11-18T20:08:28.782Z,16.73
2017-11-18T20:10:57.785Z,19.47
2017-11-18T20:13:26.110Z,16.90
2017-11-18T20:15:54.411Z,20.40
2017-11-18T20:18:22.805Z,16.30
2017-11-18T20:20:51.130Z,18.03
2017-11-18T20:23:19.456Z,15.53
2017-11-18T20:25:47.781Z,22.23
2017-11-18T20:28:16.173Z,20.20
2017-11-18T20:30:44.513Z,24.47
2017-11-18T20:33:12.850Z,22.87
2017-11-18T20:35:41.155Z,24.73
2017-11-18T20:38:10.522Z,22.67
2017-11-18T20:40:38.937Z,23.53
2017-11-18T20:43:07.265Z,27.60
2017-11-18T20:45:35.853Z,25.63
2017-11-18T20:48:04.192Z,32.30
2017-11-18T20:50:32.568Z,29.80
2017-11-18T20:53:00.906Z,31.00
2017-11-18T20:55:29.233Z,27.60
2017-11-18T20:57:57.620Z,25.00
2017-11-18T21:00:26.665Z,30.57
2017-11-18T21:02:55.068Z,25.10
2017-11-18T21:05:23.464Z,23.80
2017-11-18T21:07:51.833Z,29.03
2017-11-18T21:10:20.183Z,26.00
2017-11-18T21:12:48.532Z,26.47
2017-11-18T21:15:20.095Z,25.27
2017-11-18T21:17:48.433Z,22.50
2017-11-18T21:20:16.761Z,29.40
2017-11-18T21:22:45.080Z,25.10
2017-11-18T21:25:13.783Z,23.40
2017-11-18T21:27:42.085Z,21.57
2017-11-18T21:30:10.435Z,24.97
2017-11-18T21:32:38.845Z,26.70
2017-11-18T21:35:07.250Z,24.27
2017-11-18T21:37:35.686Z,23.93
2017-11-18T21:40:04.094Z,21.23
2017-11-18T21:42:32.425Z,22.27
2017-11-18T21:45:01.245Z,22.23
2017-11-18T21:47:29.570Z,22.90
2017-11-18T21:49:58.062Z,22.33
2017-11-18T21:52:26.403Z,32.43
2017-11-18T21:54:54.775Z,23.57
2017-11-18T21:57:23.049Z,26.67
2017-11-18T21:59:51.413Z,22.50
2017-11-18T22:02:19.721Z,21.30
2017-11-18T22:04:48.033Z,21.13
2017-11-18T22:07:16.381Z,20.20
2017-11-18T22:09:44.696Z,20.50
2017-11-18T22:12:13.088Z,20.57
2017-11-18T22:14:41.445Z,17.80
2017-11-18T22:17:09.769Z,21.80
2017-11-18T22:19:38.087Z,22.90
2017-11-18T22:22:06.429Z,21.93
2017-11-18T22:24:34.733Z,18.57
2017-11-18T22:27:03.101Z,20.30
2017-11-18T22:29:31.437Z,19.70
2017-11-18T22:31:59.783Z,24.87
2017-11-18T22:34:28.090Z,19.63
2017-11-18T22:36:56.415Z,20.20
2017-11-18T22:39:24.755Z,20.83
2017-11-18T22:41:53.710Z,22.60
2017-11-18T22:44:22.040Z,21.70
2017-11-18T22:46:50.462Z,17.90
2017-11-18T22:49:18.825Z,18.30
2017-11-18T22:51:47.144Z,20.23
2017-11-18T22:54:15.480Z,20.60
2017-11-18T22:56:43.853Z,20.60
2017-11-18T22:59:12.197Z,21.30
2017-11-18T23:04:15.062Z,17.67
2017-11-18T23:06:43.360Z,17.53
2017-11-18T23:09:11.681Z,20.33
2017-11-18T23:11:40.057Z,16.17
2017-11-18T23:14:08.381Z,16.10
2017-11-18T23:16:36.781Z,12.17
2017-11-18T23:19:05.142Z,21.93
2017-11-18T23:21:33.437Z,16.40
2017-11-18T23:24:01.765Z,19.13
2017-11-18T23:26:30.086Z,17.30
2017-11-18T23:28:58.407Z,17.03
2017-11-18T23:31:26.790Z,15.00
2017-11-18T23:33:55.096Z,14.07
2017-11-18T23:36:23.406Z,20.73
2017-11-18T23:38:56.328Z,15.57
2017-11-18T23:41:24.638Z,16.17
2017-11-18T23:43:52.950Z,16.00
2017-11-18T23:46:21.289Z,15.30
2017-11-18T23:48:49.609Z,17.50
2017-11-18T23:51:17.922Z,14.67
2017-11-18T23:53:46.257Z,14.27
2017-11-18T23:56:14.576Z,17.27
2017-11-18T23:58:42.901Z,16.90
